sensor_id;sensor_type;location;lat;lon;timestamp;pressure;altitude;pressure_sealevel;temperature;humidity
47883;BME280;37739;50.350;7.578;2023-03-16T00:00:06;100170.75;;;1.85;77.52
47883;BME280;37739;50.350;7.578;2023-03-16T00:02:41;100170.53;;;1.82;77.95
47883;BME280;37739;50.350;7.578;2023-03-16T00:05:10;100166.63;;;1.75;78.52
47883;BME280;37739;50.350;7.578;2023-03-16T01:08:11;100176.09;;;1.55;79.28
47883;BME280;37739;50.350;7.578;2023-03-16T01:10:37;100167.09;;;1.59;79.77
47883;BME280;37739;50.350;7.578;2023-03-16T01:13:05;100169.28;;;1.54;79.22
47883;BME280;37739;50.350;7.578;2023-03-16T01:15:32;100170.69;;;1.51;80.42
47883;BME280;37739;50.350;7.578;2023-03-16T01:18:01;100163.63;;;1.47;80.69
47883;BME280;37739;50.350;7.578;2023-03-16T01:20:31;100154.13;;;1.44;80.53
47883;BME280;37739;50.350;7.578;2023-03-16T01:22:57;100148.31;;;1.45;80.54
47883;BME280;37739;50.350;7.578;2023-03-16T01:25:23;100146.66;;;1.46;80.65
47883;BME280;37739;50.350;7.578;2023-03-16T01:27:48;100144.78;;;1.43;80.11
47883;BME280;37739;50.350;7.578;2023-03-16T01:30:16;100133.16;;;1.45;80.58
47883;BME280;37739;50.350;7.578;2023-03-16T01:32:41;100127.84;;;1.42;79.72
47883;BME280;37739;50.350;7.578;2023-03-16T01:35:07;100132.16;;;1.43;79.58
47883;BME280;37739;50.350;7.578;2023-03-16T01:37:35;100132.63;;;1.49;79.87
47883;BME280;37739;50.350;7.578;2023-03-16T01:40:03;100124.56;;;1.43;79.67
47883;BME280;37739;50.350;7.578;2023-03-16T01:42:33;100128.75;;;1.43;80.02
47883;BME280;37739;50.350;7.578;2023-03-16T01:45:05;100121.16;;;1.43;80.64
47883;BME280;37739;50.350;7.578;2023-03-16T01:47:33;100125.84;;;1.38;80.65
47883;BME280;37739;50.350;7.578;2023-03-16T01:50:03;100125.84;;;1.38;80.20
47883;BME280;37739;50.350;7.578;2023-03-16T01:52:31;100121.56;;;1.37;80.78
47883;BME280;37739;50.350;7.578;2023-03-16T01:55:04;100120.03;;;1.39;81.20
47883;BME280;37739;50.350;7.578;2023-03-16T01:57:39;100114.97;;;1.39;81.20
47883;BME280;37739;50.350;7.578;2023-03-16T02:00:09;100103.97;;;1.38;81.17
47883;BME280;37739;50.350;7.578;2023-03-16T02:02:39;100100.56;;;1.38;81.18
47883;BME280;37739;50.350;7.578;2023-03-16T02:05:21;100094.50;;;1.36;80.78
47883;BME280;37739;50.350;7.578;2023-03-16T02:07:50;100087.91;;;1.38;81.15
47883;BME280;37739;50.350;7.578;2023-03-16T02:10:18;100086.78;;;1.34;81.21
47883;BME280;37739;50.350;7.578;2023-03-16T02:12:44;100079.00;;;1.31;80.09
47883;BME280;37739;50.350;7.578;2023-03-16T02:15:12;100073.94;;;1.31;79.92
47883;BME280;37739;50.350;7.578;2023-03-16T02:17:40;100084.19;;;1.33;80.01
47883;BME280;37739;50.350;7.578;2023-03-16T02:20:42;100078.22;;;1.32;79.76
47883;BME280;37739;50.350;7.578;2023-03-16T02:23:14;100053.59;;;1.30;80.16
47883;BME280;37739;50.350;7.578;2023-03-16T02:25:56;100050.19;;;1.29;80.16
47883;BME280;37739;50.350;7.578;2023-03-16T02:28:30;100044.00;;;1.26;80.72
47883;BME280;37739;50.350;7.578;2023-03-16T02:30:59;100046.16;;;1.21;80.22
47883;BME280;37739;50.350;7.578;2023-03-16T02:33:27;100038.09;;;1.25;79.71
47883;BME280;37739;50.350;7.578;2023-03-16T02:35:56;100039.69;;;1.25;80.52
47883;BME280;37739;50.350;7.578;2023-03-16T02:38:21;100042.00;;;1.22;80.58
47883;BME280;37739;50.350;7.578;2023-03-16T02:40:56;100045.16;;;1.19;81.08
47883;BME280;37739;50.350;7.578;2023-03-16T02:43:24;100049.34;;;1.18;81.57
47883;BME280;37739;50.350;7.578;2023-03-16T02:45:57;100044.56;;;1.11;81.83
47883;BME280;37739;50.350;7.578;2023-03-16T02:48:32;100046.47;;;1.14;81.80
47883;BME280;37739;50.350;7.578;2023-03-16T02:51:02;100049.22;;;1.17;82.09
47883;BME280;37739;50.350;7.578;2023-03-16T02:53:28;100047.69;;;1.19;81.93
47883;BME280;37739;50.350;7.578;2023-03-16T02:55:54;100057.06;;;1.20;81.63
47883;BME280;37739;50.350;7.578;2023-03-16T02:58:19;100041.41;;;1.14;80.84
47883;BME280;37739;50.350;7.578;2023-03-16T03:00:47;100045.41;;;1.22;80.92
47883;BME280;37739;50.350;7.578;2023-03-16T03:03:14;100036.19;;;1.23;80.74
47883;BME280;37739;50.350;7.578;2023-03-16T03:05:40;100030.00;;;1.19;80.68
47883;BME280;37739;50.350;7.578;2023-03-16T03:08:07;100035.44;;;1.24;80.27
47883;BME280;37739;50.350;7.578;2023-03-16T03:10:33;100034.06;;;1.17;80.34
47883;BME280;37739;50.350;7.578;2023-03-16T03:13:00;100034.19;;;1.18;80.83
47883;BME280;37739;50.350;7.578;2023-03-16T03:15:28;100039.22;;;1.18;80.53
47883;BME280;37739;50.350;7.578;2023-03-16T03:17:55;100038.47;;;1.20;80.16
47883;BME280;37739;50.350;7.578;2023-03-16T03:20:23;100038.56;;;1.21;80.73
47883;BME280;37739;50.350;7.578;2023-03-16T03:22:51;100027.59;;;1.21;79.96
47883;BME280;37739;50.350;7.578;2023-03-16T03:25:20;100032.53;;;1.19;81.11
47883;BME280;37739;50.350;7.578;2023-03-16T03:27:49;100032.06;;;1.13;81.26
47883;BME280;37739;50.350;7.578;2023-03-16T03:30:22;100036.09;;;1.11;81.26
47883;BME280;37739;50.350;7.578;2023-03-16T03:32:51;100033.47;;;1.09;81.36
47883;BME280;37739;50.350;7.578;2023-03-16T03:35:22;100031.06;;;1.11;81.23
47883;BME280;37739;50.350;7.578;2023-03-16T03:37:48;100041.94;;;1.10;80.86
47883;BME280;37739;50.350;7.578;2023-03-16T03:40:18;100028.28;;;1.08;80.97
47883;BME280;37739;50.350;7.578;2023-03-16T03:42:43;100029.41;;;1.11;81.05
47883;BME280;37739;50.350;7.578;2023-03-16T03:45:10;100031.94;;;1.11;81.53
47883;BME280;37739;50.350;7.578;2023-03-16T03:47:39;100018.16;;;1.08;81.55
47883;BME280;37739;50.350;7.578;2023-03-16T03:50:08;100021.59;;;1.08;81.08
47883;BME280;37739;50.350;7.578;2023-03-16T03:52:34;100015.63;;;1.08;81.10
47883;BME280;37739;50.350;7.578;2023-03-16T03:55:01;100008.31;;;1.11;81.50
47883;BME280;37739;50.350;7.578;2023-03-16T03:57:27;100008.97;;;1.08;81.22
47883;BME280;37739;50.350;7.578;2023-03-16T03:59:52;100011.13;;;1.04;81.34
47883;BME280;37739;50.350;7.578;2023-03-16T04:02:19;100012.91;;;1.05;82.09
47883;BME280;37739;50.350;7.578;2023-03-16T04:04:47;100013.91;;;1.07;81.27
47883;BME280;37739;50.350;7.578;2023-03-16T04:07:15;100003.19;;;0.99;81.96
47883;BME280;37739;50.350;7.578;2023-03-16T04:09:40;100013.16;;;0.97;81.78
47883;BME280;37739;50.350;7.578;2023-03-16T04:12:09;100024.53;;;1.03;81.64
47883;BME280;37739;50.350;7.578;2023-03-16T04:14:35;100015.56;;;1.06;81.74
47883;BME280;37739;50.350;7.578;2023-03-16T04:17:02;100012.38;;;1.09;81.09
47883;BME280;37739;50.350;7.578;2023-03-16T04:19:28;100012.25;;;1.07;81.91
47883;BME280;37739;50.350;7.578;2023-03-16T04:21:56;100021.72;;;1.10;81.75
47883;BME280;37739;50.350;7.578;2023-03-16T04:24:26;100020.94;;;1.11;81.42
47883;BME280;37739;50.350;7.578;2023-03-16T04:26:51;100018.66;;;1.14;81.40
47883;BME280;37739;50.350;7.578;2023-03-16T04:29:20;100017.28;;;1.17;81.71
47883;BME280;37739;50.350;7.578;2023-03-16T04:31:46;100014.38;;;1.13;81.67
47883;BME280;37739;50.350;7.578;2023-03-16T04:34:16;100004.78;;;1.09;81.93
47883;BME280;37739;50.350;7.578;2023-03-16T04:36:41;100005.03;;;1.12;81.55
47883;BME280;37739;50.350;7.578;2023-03-16T04:39:07;99998.47;;;1.14;80.89
47883;BME280;37739;50.350;7.578;2023-03-16T04:41:33;99996.56;;;1.11;81.32
47883;BME280;37739;50.350;7.578;2023-03-16T04:44:02;99999.72;;;1.09;81.19
47883;BME280;37739;50.350;7.578;2023-03-16T04:46:29;99990.16;;;1.05;81.38
47883;BME280;37739;50.350;7.578;2023-03-16T04:48:57;99988.50;;;1.05;81.42
47883;BME280;37739;50.350;7.578;2023-03-16T04:51:27;99991.16;;;1.07;81.46
47883;BME280;37739;50.350;7.578;2023-03-16T04:53:57;99990.28;;;1.06;81.93
47883;BME280;37739;50.350;7.578;2023-03-16T04:56:22;99985.31;;;1.08;81.39
47883;BME280;37739;50.350;7.578;2023-03-16T04:58:52;99979.19;;;1.04;81.97
47883;BME280;37739;50.350;7.578;2023-03-16T05:01:17;99982.78;;;1.08;81.44
47883;BME280;37739;50.350;7.578;2023-03-16T05:03:45;99976.25;;;1.10;81.89
47883;BME280;37739;50.350;7.578;2023-03-16T05:06:11;99968.53;;;1.08;81.71
47883;BME280;37739;50.350;7.578;2023-03-16T05:08:36;99971.41;;;1.13;81.34
47883;BME280;37739;50.350;7.578;2023-03-16T05:11:06;99969.66;;;1.12;81.97
47883;BME280;37739;50.350;7.578;2023-03-16T05:13:32;99969.66;;;1.12;82.00
47883;BME280;37739;50.350;7.578;2023-03-16T05:15:58;99963.50;;;1.08;81.53
47883;BME280;37739;50.350;7.578;2023-03-16T05:18:28;99962.09;;;1.12;81.82
47883;BME280;37739;50.350;7.578;2023-03-16T05:20:57;99957.50;;;1.18;81.78
47883;BME280;37739;50.350;7.578;2023-03-16T05:23:22;99955.19;;;1.21;81.57
47883;BME280;37739;50.350;7.578;2023-03-16T05:25:48;99949.03;;;1.17;81.60
47883;BME280;37739;50.350;7.578;2023-03-16T05:28:14;99958.50;;;1.20;82.31
47883;BME280;37739;50.350;7.578;2023-03-16T05:30:40;99954.31;;;1.21;81.81
47883;BME280;37739;50.350;7.578;2023-03-16T05:33:06;99956.72;;;1.19;82.40
47883;BME280;37739;50.350;7.578;2023-03-16T05:35:31;99951.91;;;1.22;81.64
47883;BME280;37739;50.350;7.578;2023-03-16T05:37:59;99953.66;;;1.23;81.76
47883;BME280;37739;50.350;7.578;2023-03-16T05:40:27;99956.28;;;1.25;82.23
47883;BME280;37739;50.350;7.578;2023-03-16T05:42:56;99954.75;;;1.27;82.12
47883;BME280;37739;50.350;7.578;2023-03-16T05:45:22;99959.19;;;1.29;81.72
47883;BME280;37739;50.350;7.578;2023-03-16T05:47:48;99964.25;;;1.29;81.93
47883;BME280;37739;50.350;7.578;2023-03-16T05:50:15;99960.19;;;1.31;82.33
47883;BME280;37739;50.350;7.578;2023-03-16T05:52:41;99965.72;;;1.37;81.64
47883;BME280;37739;50.350;7.578;2023-03-16T05:55:11;99974.03;;;1.36;81.72
47883;BME280;37739;50.350;7.578;2023-03-16T05:57:42;99968.22;;;1.37;81.47
47883;BME280;37739;50.350;7.578;2023-03-16T06:00:11;99969.34;;;1.41;81.51
47883;BME280;37739;50.350;7.578;2023-03-16T06:02:45;99975.94;;;1.39;81.82
47883;BME280;37739;50.350;7.578;2023-03-16T06:05:16;99966.03;;;1.42;82.25
47883;BME280;37739;50.350;7.578;2023-03-16T06:07:44;99965.63;;;1.48;82.38
47883;BME280;37739;50.350;7.578;2023-03-16T06:10:10;99967.53;;;1.50;81.66
47883;BME280;37739;50.350;7.578;2023-03-16T06:12:39;99970.06;;;1.50;82.12
47883;BME280;37739;50.350;7.578;2023-03-16T06:15:06;99970.50;;;1.56;81.97
47883;BME280;37739;50.350;7.578;2023-03-16T06:17:36;99973.16;;;1.58;82.61
47883;BME280;37739;50.350;7.578;2023-03-16T06:20:03;99978.44;;;1.61;82.33
47883;BME280;37739;50.350;7.578;2023-03-16T06:22:36;99982.94;;;1.65;81.69
47883;BME280;37739;50.350;7.578;2023-03-16T06:25:07;99988.13;;;1.67;82.25
47883;BME280;37739;50.350;7.578;2023-03-16T06:27:32;99985.06;;;1.71;82.20
47883;BME280;37739;50.350;7.578;2023-03-16T06:30:03;99992.09;;;1.75;81.82
47883;BME280;37739;50.350;7.578;2023-03-16T06:32:30;99982.97;;;1.77;82.22
47883;BME280;37739;50.350;7.578;2023-03-16T06:34:55;99990.06;;;1.81;82.30
47883;BME280;37739;50.350;7.578;2023-03-16T06:37:23;99983.66;;;1.86;82.70
47883;BME280;37739;50.350;7.578;2023-03-16T06:39:49;99978.97;;;1.91;81.70
47883;BME280;37739;50.350;7.578;2023-03-16T06:42:16;99981.69;;;1.94;81.71
47883;BME280;37739;50.350;7.578;2023-03-16T06:44:42;99986.22;;;1.98;82.12
47883;BME280;37739;50.350;7.578;2023-03-16T06:47:09;99989.22;;;2.04;82.08
47883;BME280;37739;50.350;7.578;2023-03-16T06:49:40;99993.88;;;2.10;81.83
47883;BME280;37739;50.350;7.578;2023-03-16T06:52:08;99991.78;;;2.16;81.60
47883;BME280;37739;50.350;7.578;2023-03-16T06:54:35;99981.09;;;2.20;81.24
47883;BME280;37739;50.350;7.578;2023-03-16T06:57:04;99993.44;;;2.27;81.91
47883;BME280;37739;50.350;7.578;2023-03-16T06:59:29;99982.75;;;2.31;81.13
47883;BME280;37739;50.350;7.578;2023-03-16T07:01:57;99979.44;;;2.32;81.36
47883;BME280;37739;50.350;7.578;2023-03-16T07:04:22;99986.41;;;2.35;81.89
47883;BME280;37739;50.350;7.578;2023-03-16T07:06:47;99984.19;;;2.40;81.29
47883;BME280;37739;50.350;7.578;2023-03-16T07:09:15;99991.22;;;2.44;81.40
47883;BME280;37739;50.350;7.578;2023-03-16T07:11:40;99990.69;;;2.48;81.45
47883;BME280;37739;50.350;7.578;2023-03-16T07:14:07;99990.03;;;2.50;80.99
47883;BME280;37739;50.350;7.578;2023-03-16T07:16:37;99988.81;;;2.57;80.43
47883;BME280;37739;50.350;7.578;2023-03-16T07:19:03;99995.28;;;2.65;80.69
47883;BME280;37739;50.350;7.578;2023-03-16T07:21:28;99996.53;;;2.70;80.51
47883;BME280;37739;50.350;7.578;2023-03-16T07:23:56;99990.44;;;2.80;80.88
47883;BME280;37739;50.350;7.578;2023-03-16T07:26:26;99994.31;;;2.87;79.92
47883;BME280;37739;50.350;7.578;2023-03-16T07:28:51;99988.56;;;2.89;80.33
47883;BME280;37739;50.350;7.578;2023-03-16T07:31:19;99988.13;;;2.95;80.57
47883;BME280;37739;50.350;7.578;2023-03-16T07:33:44;100001.31;;;3.03;80.34
47883;BME280;37739;50.350;7.578;2023-03-16T07:36:10;99991.38;;;3.06;79.32
47883;BME280;37739;50.350;7.578;2023-03-16T07:38:38;99993.16;;;3.07;80.06
47883;BME280;37739;50.350;7.578;2023-03-16T07:41:07;99993.47;;;3.11;79.50
47883;BME280;37739;50.350;7.578;2023-03-16T07:43:33;99995.56;;;3.17;79.24
47883;BME280;37739;50.350;7.578;2023-03-16T07:45:58;99976.69;;;3.25;79.26
47883;BME280;37739;50.350;7.578;2023-03-16T07:48:24;99982.03;;;3.42;79.16
47883;BME280;37739;50.350;7.578;2023-03-16T07:50:50;99995.75;;;3.57;79.73
47883;BME280;37739;50.350;7.578;2023-03-16T07:53:15;99988.41;;;3.73;78.31
47883;BME280;37739;50.350;7.578;2023-03-16T07:55:43;99981.97;;;3.79;78.47
47883;BME280;37739;50.350;7.578;2023-03-16T07:58:11;99979.53;;;3.80;78.09
47883;BME280;37739;50.350;7.578;2023-03-16T08:00:39;99968.63;;;3.81;78.20
47883;BME280;37739;50.350;7.578;2023-03-16T08:03:09;99970.00;;;3.89;78.18
47883;BME280;37739;50.350;7.578;2023-03-16T08:05:37;99966.78;;;3.92;77.89
47883;BME280;37739;50.350;7.578;2023-03-16T08:08:05;99976.94;;;3.92;77.12
47883;BME280;37739;50.350;7.578;2023-03-16T08:10:36;99966.19;;;3.96;77.58
47883;BME280;37739;50.350;7.578;2023-03-16T08:13:02;99964.16;;;4.04;77.17
47883;BME280;37739;50.350;7.578;2023-03-16T08:15:29;99971.63;;;4.14;77.50
47883;BME280;37739;50.350;7.578;2023-03-16T08:17:58;99971.78;;;4.17;76.70
47883;BME280;37739;50.350;7.578;2023-03-16T08:20:24;99970.06;;;4.16;76.85
47883;BME280;37739;50.350;7.578;2023-03-16T08:22:52;99980.97;;;4.15;76.43
47883;BME280;37739;50.350;7.578;2023-03-16T08:25:20;99974.34;;;4.17;76.08
47883;BME280;37739;50.350;7.578;2023-03-16T08:27:47;99958.50;;;4.21;76.13
47883;BME280;37739;50.350;7.578;2023-03-16T08:30:14;99968.59;;;4.20;75.42
47883;BME280;37739;50.350;7.578;2023-03-16T08:32:40;99961.25;;;4.24;75.77
47883;BME280;37739;50.350;7.578;2023-03-16T08:35:07;99958.94;;;4.27;75.53
47883;BME280;37739;50.350;7.578;2023-03-16T08:37:33;99955.00;;;4.32;75.75
47883;BME280;37739;50.350;7.578;2023-03-16T08:40:02;99954.53;;;4.38;75.25
47883;BME280;37739;50.350;7.578;2023-03-16T08:42:29;99948.09;;;4.43;74.79
47883;BME280;37739;50.350;7.578;2023-03-16T08:44:55;99954.03;;;4.44;74.58
47883;BME280;37739;50.350;7.578;2023-03-16T08:47:21;99945.06;;;4.49;74.82
47883;BME280;37739;50.350;7.578;2023-03-16T08:49:49;99954.25;;;4.60;74.80
47883;BME280;37739;50.350;7.578;2023-03-16T08:52:15;99950.78;;;4.73;74.48
47883;BME280;37739;50.350;7.578;2023-03-16T08:54:41;99954.00;;;4.84;74.00
47883;BME280;37739;50.350;7.578;2023-03-16T08:57:09;99944.31;;;4.91;73.35
47883;BME280;37739;50.350;7.578;2023-03-16T08:59:37;99947.44;;;5.01;73.35
47883;BME280;37739;50.350;7.578;2023-03-16T09:02:02;99950.09;;;5.17;73.12
47883;BME280;37739;50.350;7.578;2023-03-16T09:04:28;99950.94;;;5.31;72.29
47883;BME280;37739;50.350;7.578;2023-03-16T09:06:54;99946.75;;;5.31;71.55
47883;BME280;37739;50.350;7.578;2023-03-16T09:09:22;99951.69;;;5.43;71.61
47883;BME280;37739;50.350;7.578;2023-03-16T09:11:47;99944.59;;;5.53;70.84
47883;BME280;37739;50.350;7.578;2023-03-16T09:14:14;99947.16;;;5.67;70.85
47883;BME280;37739;50.350;7.578;2023-03-16T09:16:39;99938.47;;;5.79;70.10
47883;BME280;37739;50.350;7.578;2023-03-16T09:19:08;99945.28;;;5.93;69.93
47883;BME280;37739;50.350;7.578;2023-03-16T09:21:40;99941.72;;;6.04;68.93
47883;BME280;37739;50.350;7.578;2023-03-16T09:24:08;99939.16;;;6.04;69.26
47883;BME280;37739;50.350;7.578;2023-03-16T09:26:36;99942.56;;;6.05;68.45
47883;BME280;37739;50.350;7.578;2023-03-16T09:29:04;99948.53;;;6.05;68.10
47883;BME280;37739;50.350;7.578;2023-03-16T09:31:34;99937.72;;;6.09;68.32
47883;BME280;37739;50.350;7.578;2023-03-16T09:34:00;99929.84;;;6.20;67.50
47883;BME280;37739;50.350;7.578;2023-03-16T09:36:25;99928.94;;;6.34;67.21
47883;BME280;37739;50.350;7.578;2023-03-16T09:38:53;99937.44;;;6.49;66.93
47883;BME280;37739;50.350;7.578;2023-03-16T09:47:02;99945.53;;;7.05;63.97
47883;BME280;37739;50.350;7.578;2023-03-16T09:49:39;99939.47;;;7.03;64.16
47883;BME280;37739;50.350;7.578;2023-03-16T09:52:50;99929.97;;;7.00;64.28
47883;BME280;37739;50.350;7.578;2023-03-16T09:58:51;99935.31;;;7.05;64.61
47883;BME280;37739;50.350;7.578;2023-03-16T10:07:34;99915.91;;;7.74;62.73
47883;BME280;37739;50.350;7.578;2023-03-16T10:12:40;99925.56;;;7.80;60.69
47883;BME280;37739;50.350;7.578;2023-03-16T10:15:13;99920.44;;;7.80;60.80
47883;BME280;37739;50.350;7.578;2023-03-16T10:17:53;99919.34;;;7.93;61.46
47883;BME280;37739;50.350;7.578;2023-03-16T10:20:27;99920.69;;;8.02;60.24
47883;BME280;37739;50.350;7.578;2023-03-16T10:22:53;99918.66;;;7.95;60.56
47883;BME280;37739;50.350;7.578;2023-03-16T10:25:29;99914.81;;;7.87;60.45
47883;BME280;37739;50.350;7.578;2023-03-16T10:27:55;99917.69;;;7.93;61.49
47883;BME280;37739;50.350;7.578;2023-03-16T10:30:27;99907.91;;;8.02;61.43
47883;BME280;37739;50.350;7.578;2023-03-16T10:32:54;99913.25;;;8.07;61.14
47883;BME280;37739;50.350;7.578;2023-03-16T10:38:08;99900.13;;;7.99;60.20
47883;BME280;37739;50.350;7.578;2023-03-16T10:40:37;99896.69;;;7.99;60.66
47883;BME280;37739;50.350;7.578;2023-03-16T10:43:12;99910.16;;;7.96;58.68
47883;BME280;37739;50.350;7.578;2023-03-16T10:45:38;99910.16;;;7.96;59.19
47883;BME280;37739;50.350;7.578;2023-03-16T10:48:18;99906.38;;;8.06;59.13
47883;BME280;37739;50.350;7.578;2023-03-16T10:50:49;99912.91;;;8.17;58.49
47883;BME280;37739;50.350;7.578;2023-03-16T10:53:22;99907.78;;;8.17;58.30
47883;BME280;37739;50.350;7.578;2023-03-16T10:55:55;99901.66;;;8.14;58.73
47883;BME280;37739;50.350;7.578;2023-03-16T10:58:33;99899.09;;;8.14;59.08
47883;BME280;37739;50.350;7.578;2023-03-16T11:01:00;99897.28;;;8.11;59.17
47883;BME280;37739;50.350;7.578;2023-03-16T11:03:30;99891.88;;;8.05;58.25
47883;BME280;37739;50.350;7.578;2023-03-16T11:06:04;99882.03;;;8.13;58.34
47883;BME280;37739;50.350;7.578;2023-03-16T11:08:33;99890.25;;;8.25;58.79
47883;BME280;37739;50.350;7.578;2023-03-16T11:11:07;99885.75;;;8.37;58.01
47883;BME280;37739;50.350;7.578;2023-03-16T11:13:38;99879.63;;;8.52;58.70
47883;BME280;37739;50.350;7.578;2023-03-16T11:16:31;99875.41;;;8.72;57.50
47883;BME280;37739;50.350;7.578;2023-03-16T11:22:11;99867.09;;;8.95;56.22
47883;BME280;37739;50.350;7.578;2023-03-16T11:25:04;99861.03;;;9.13;56.48
47883;BME280;37739;50.350;7.578;2023-03-16T11:33:10;99857.66;;;9.74;54.93
47883;BME280;37739;50.350;7.578;2023-03-16T11:38:12;99863.72;;;9.76;53.83
47883;BME280;37739;50.350;7.578;2023-03-16T11:40:49;99865.13;;;9.69;54.55
47883;BME280;37739;50.350;7.578;2023-03-16T11:43:41;99861.88;;;9.73;55.07
47883;BME280;37739;50.350;7.578;2023-03-16T11:56:53;99830.72;;;10.06;53.52
47883;BME280;37739;50.350;7.578;2023-03-16T12:02:32;99815.63;;;10.80;51.52
47883;BME280;37739;50.350;7.578;2023-03-16T12:15:41;99793.13;;;11.48;49.32
47883;BME280;37739;50.350;7.578;2023-03-16T12:20:49;99797.06;;;11.64;49.12
47883;BME280;37739;50.350;7.578;2023-03-16T12:23:20;99793.34;;;11.82;48.53
47883;BME280;37739;50.350;7.578;2023-03-16T12:25:52;99785.00;;;11.89;48.46
47883;BME280;37739;50.350;7.578;2023-03-16T12:28:23;99783.56;;;11.95;47.88
47883;BME280;37739;50.350;7.578;2023-03-16T12:31:05;99793.41;;;12.10;47.90
47883;BME280;37739;50.350;7.578;2023-03-16T12:36:30;99782.84;;;12.28;48.12
47883;BME280;37739;50.350;7.578;2023-03-16T12:39:01;99768.16;;;12.26;47.80
47883;BME280;37739;50.350;7.578;2023-03-16T12:41:58;99774.00;;;12.20;47.66
47883;BME280;37739;50.350;7.578;2023-03-16T12:44:32;99766.50;;;12.26;47.93
47883;BME280;37739;50.350;7.578;2023-03-16T12:49:50;99761.63;;;12.37;47.68
47883;BME280;37739;50.350;7.578;2023-03-16T12:52:18;99751.41;;;12.10;48.39
47883;BME280;37739;50.350;7.578;2023-03-16T12:55:07;99738.25;;;11.99;47.23
47883;BME280;37739;50.350;7.578;2023-03-16T12:57:35;99753.69;;;12.01;48.41
47883;BME280;37739;50.350;7.578;2023-03-16T13:00:00;99732.16;;;11.95;47.66
47883;BME280;37739;50.350;7.578;2023-03-16T13:02:31;99736.84;;;11.83;47.67
47883;BME280;37739;50.350;7.578;2023-03-16T13:08:15;99742.66;;;11.76;47.12
47883;BME280;37739;50.350;7.578;2023-03-16T13:11:05;99735.75;;;11.75;48.04
47883;BME280;37739;50.350;7.578;2023-03-16T13:13:33;99742.16;;;11.61;47.28
47883;BME280;37739;50.350;7.578;2023-03-16T13:16:08;99734.09;;;11.50;48.14
47883;BME280;37739;50.350;7.578;2023-03-16T13:18:38;99719.47;;;11.47;48.18
47883;BME280;37739;50.350;7.578;2023-03-16T13:21:32;99723.84;;;11.50;47.45
47883;BME280;37739;50.350;7.578;2023-03-16T13:24:43;99718.94;;;11.57;47.59
47883;BME280;37739;50.350;7.578;2023-03-16T13:27:19;99717.59;;;11.42;47.76
47883;BME280;37739;50.350;7.578;2023-03-16T13:29:57;99695.75;;;11.29;48.11
47883;BME280;37739;50.350;7.578;2023-03-16T13:32:31;99695.38;;;11.44;47.76
47883;BME280;37739;50.350;7.578;2023-03-16T13:34:59;99694.72;;;11.49;47.81
47883;BME280;37739;50.350;7.578;2023-03-16T13:37:28;99700.94;;;11.57;47.54
47883;BME280;37739;50.350;7.578;2023-03-16T13:39:56;99700.91;;;11.56;47.18
47883;BME280;37739;50.350;7.578;2023-03-16T13:42:23;99703.94;;;11.71;47.82
47883;BME280;37739;50.350;7.578;2023-03-16T13:44:55;99703.75;;;11.65;46.95
47883;BME280;37739;50.350;7.578;2023-03-16T13:47:26;99691.97;;;11.72;48.55
47883;BME280;37739;50.350;7.578;2023-03-16T13:49:57;99687.97;;;11.82;47.50
47883;BME280;37739;50.350;7.578;2023-03-16T13:52:29;99693.09;;;11.80;46.98
47883;BME280;37739;50.350;7.578;2023-03-16T13:54:57;99687.66;;;11.71;47.50
47883;BME280;37739;50.350;7.578;2023-03-16T13:57:31;99682.81;;;11.80;46.99
47883;BME280;37739;50.350;7.578;2023-03-16T14:02:30;99672.44;;;12.06;46.50
47883;BME280;37739;50.350;7.578;2023-03-16T14:05:08;99674.19;;;12.07;46.58
47883;BME280;37739;50.350;7.578;2023-03-16T14:07:36;99667.25;;;12.04;46.81
47883;BME280;37739;50.350;7.578;2023-03-16T14:10:03;99657.59;;;11.97;45.32
47883;BME280;37739;50.350;7.578;2023-03-16T14:12:29;99662.44;;;12.15;45.59
47883;BME280;37739;50.350;7.578;2023-03-16T14:14:55;99650.31;;;12.43;45.24
47883;BME280;37739;50.350;7.578;2023-03-16T14:17:21;99644.88;;;12.64;45.94
47883;BME280;37739;50.350;7.578;2023-03-16T14:19:55;99642.59;;;12.74;45.04
47883;BME280;37739;50.350;7.578;2023-03-16T14:22:34;99634.34;;;12.88;43.93
47883;BME280;37739;50.350;7.578;2023-03-16T14:25:04;99631.78;;;12.88;44.53
47883;BME280;37739;50.350;7.578;2023-03-16T14:30:21;99638.50;;;12.83;44.95
47883;BME280;37739;50.350;7.578;2023-03-16T14:35:32;99633.34;;;12.83;45.18
47883;BME280;37739;50.350;7.578;2023-03-16T14:38:30;99629.00;;;12.80;45.07
47883;BME280;37739;50.350;7.578;2023-03-16T14:43:34;99624.53;;;12.41;45.45
47883;BME280;37739;50.350;7.578;2023-03-16T14:46:03;99629.78;;;12.44;46.65
47883;BME280;37739;50.350;7.578;2023-03-16T14:48:32;99619.03;;;12.59;46.87
47883;BME280;37739;50.350;7.578;2023-03-16T14:51:00;99613.63;;;12.50;47.30
47883;BME280;37739;50.350;7.578;2023-03-16T14:53:29;99613.22;;;12.34;47.24
47883;BME280;37739;50.350;7.578;2023-03-16T14:55:55;99612.91;;;12.22;47.90
47883;BME280;37739;50.350;7.578;2023-03-16T14:58:23;99605.25;;;12.25;47.97
47883;BME280;37739;50.350;7.578;2023-03-16T15:00:49;99606.06;;;12.23;46.88
47883;BME280;37739;50.350;7.578;2023-03-16T15:03:25;99593.50;;;12.35;47.25
47883;BME280;37739;50.350;7.578;2023-03-16T15:05:53;99603.97;;;12.41;47.59
47883;BME280;37739;50.350;7.578;2023-03-16T15:08:22;99587.81;;;12.47;46.86
47883;BME280;37739;50.350;7.578;2023-03-16T15:10:52;99584.53;;;12.52;47.49
47883;BME280;37739;50.350;7.578;2023-03-16T15:13:21;99588.06;;;12.56;46.92
47883;BME280;37739;50.350;7.578;2023-03-16T15:16:05;99588.66;;;12.46;48.08
47883;BME280;37739;50.350;7.578;2023-03-16T15:18:33;99588.09;;;12.24;47.70
47883;BME280;37739;50.350;7.578;2023-03-16T15:21:02;99589.38;;;12.08;48.23
47883;BME280;37739;50.350;7.578;2023-03-16T15:23:34;99586.56;;;11.99;48.30
47883;BME280;37739;50.350;7.578;2023-03-16T15:26:01;99578.72;;;11.94;48.82
47883;BME280;37739;50.350;7.578;2023-03-16T15:28:31;99576.75;;;11.87;47.74
47883;BME280;37739;50.350;7.578;2023-03-16T15:31:00;99578.50;;;11.88;48.76
47883;BME280;37739;50.350;7.578;2023-03-16T15:33:26;99557.47;;;11.71;47.98
47883;BME280;37739;50.350;7.578;2023-03-16T15:35:54;99546.38;;;11.72;48.59